Time;durP1;ratioP1;P1;durP2;ratioP2;P2;SDS_P1;SDS_P2;PMS_P1;PMS_P2;Temp;Humidity;BMP_temperature;BMP_pressure;BME280_temperature;BME280_humidity;BME280_pressure;Samples;Min_cycle;Max_cycle;Signal;HPM_P1;HPM_P2
2022/04/12 00:01:16;;;;;;;4.30;1.45;;;;;;;;;;5083717;28;20245;-70
2022/04/12 00:03:42;;;;;;;4.35;1.52;;;;;;;;;;5065396;28;20055;-72
2022/04/12 00:06:08;;;;;;;4.20;1.00;;;;;;;;;;5094800;27;20039;-71
2022/04/12 00:08:34;;;;;;;3.80;1.23;;;;;;;;;;5124608;27;20054;-71
2022/04/12 00:11:00;;;;;;;4.15;1.42;;;;;;;;;;5105980;27;20050;-71
2022/04/12 00:13:26;;;;;;;3.30;1.20;;;;;;;;;;5094530;27;20184;-71
2022/04/12 00:15:52;;;;;;;3.70;1.33;;;;;;;;;;5109130;27;20070;-72
2022/04/12 00:21:03;;;;;;;3.85;1.00;;;;;;;;;;5122129;27;20397;-72
2022/04/12 00:23:29;;;;;;;3.75;1.20;;;;;;;;;;5107069;27;20226;-71
2022/04/12 00:25:55;;;;;;;4.50;1.40;;;;;;;;;;5122184;27;20142;-71
2022/04/12 00:28:22;;;;;;;4.68;1.27;;;;;;;;;;5101499;27;21648;-71
2022/04/12 00:30:48;;;;;;;4.45;1.35;;;;;;;;;;5059574;27;20156;-71
2022/04/12 00:33:15;;;;;;;4.03;1.20;;;;;;;;;;5087001;27;20067;-71
2022/04/12 00:35:41;;;;;;;4.50;1.20;;;;;;;;;;5112821;27;20027;-71
2022/04/12 00:38:17;;;;;;;4.28;1.50;;;;;;;;;;5108732;27;20139;-71
2022/04/12 00:40:44;;;;;;;3.85;1.20;;;;;;;;;;5070906;27;20043;-71
2022/04/12 00:43:10;;;;;;;3.95;1.20;;;;;;;;;;5100747;27;20151;-71
2022/04/12 00:45:36;;;;;;;4.05;1.17;;;;;;;;;;5095201;27;20074;-72
2022/04/12 00:48:02;;;;;;;4.45;1.27;;;;;;;;;;5124170;27;20074;-73
2022/04/12 00:50:28;;;;;;;4.40;1.40;;;;;;;;;;5122329;27;20038;-71
2022/04/12 00:52:56;;;;;;;4.35;1.25;;;;;;;;;;5123760;27;20099;-72
2022/04/12 00:55:22;;;;;;;3.47;1.13;;;;;;;;;;5122056;27;20357;-71
2022/04/12 00:57:49;;;;;;;3.83;1.25;;;;;;;;;;5118177;27;20035;-71
2022/04/12 01:00:18;;;;;;;4.03;1.20;;;;;;;;;;5105841;27;20060;-71
2022/04/12 01:02:44;;;;;;;3.47;1.27;;;;;;;;;;5086916;27;20566;-71
2022/04/12 01:05:10;;;;;;;3.35;1.13;;;;;;;;;;5080397;27;20061;-71
2022/04/12 01:07:37;;;;;;;4.63;1.50;;;;;;;;;;5108737;27;20053;-71
2022/04/12 01:10:04;;;;;;;4.40;1.40;;;;;;;;;;5105853;27;20098;-71
2022/04/12 01:12:30;;;;;;;4.07;1.40;;;;;;;;;;5074863;27;22284;-72
2022/04/12 01:15:14;;;;;;;4.10;1.55;;;;;;;;;;5067164;27;20161;-70
2022/04/12 01:17:40;;;;;;;4.68;1.40;;;;;;;;;;5123114;27;20043;-71
2022/04/12 01:20:07;;;;;;;4.47;1.40;;;;;;;;;;5139501;27;20035;-71
2022/04/12 01:22:34;;;;;;;5.15;1.75;;;;;;;;;;5122487;27;20081;-71
2022/04/12 01:25:00;;;;;;;4.97;1.50;;;;;;;;;;5121459;27;20039;-71
2022/04/12 01:27:27;;;;;;;5.60;1.63;;;;;;;;;;5122647;27;20289;-71
2022/04/12 01:29:54;;;;;;;4.13;1.20;;;;;;;;;;5132671;27;20052;-71
2022/04/12 01:32:20;;;;;;;4.00;1.40;;;;;;;;;;5082001;28;20429;-71
2022/04/12 01:34:46;;;;;;;5.15;1.75;;;;;;;;;;5079492;27;20046;-70
2022/04/12 01:37:12;;;;;;;3.83;1.42;;;;;;;;;;5091448;27;20031;-71
2022/04/12 01:39:38;;;;;;;5.22;1.83;;;;;;;;;;5102885;27;20051;-71
2022/04/12 01:42:04;;;;;;;4.68;1.65;;;;;;;;;;5098720;28;20083;-71
2022/04/12 01:44:30;;;;;;;5.15;1.63;;;;;;;;;;5096036;27;20506;-72
2022/04/12 01:46:56;;;;;;;4.82;1.52;;;;;;;;;;5106835;27;20039;-70
2022/04/12 01:49:22;;;;;;;5.07;1.70;;;;;;;;;;5102286;27;20539;-71
2022/04/12 01:51:48;;;;;;;5.57;1.80;;;;;;;;;;5103904;27;20046;-70
2022/04/12 01:54:14;;;;;;;5.35;1.67;;;;;;;;;;5121431;27;20115;-70
2022/04/12 01:56:40;;;;;;;5.10;1.70;;;;;;;;;;5119759;27;20056;-72
2022/04/12 01:59:06;;;;;;;4.28;1.60;;;;;;;;;;5105284;27;20043;-71
2022/04/12 02:01:32;;;;;;;3.97;1.55;;;;;;;;;;5120815;27;20235;-71
2022/04/12 02:03:58;;;;;;;5.97;1.70;;;;;;;;;;5122672;27;20046;-71
2022/04/12 02:06:24;;;;;;;4.60;1.65;;;;;;;;;;5120623;27;20054;-71
2022/04/12 02:08:50;;;;;;;4.70;1.40;;;;;;;;;;5122619;27;20129;-71
2022/04/12 02:11:16;;;;;;;5.72;1.63;;;;;;;;;;5106926;27;20578;-73
2022/04/12 02:13:42;;;;;;;3.97;2.00;;;;;;;;;;5054049;27;20380;-71
2022/04/12 02:16:08;;;;;;;4.43;1.90;;;;;;;;;;5083923;28;20043;-71
2022/04/12 02:18:34;;;;;;;5.05;1.73;;;;;;;;;;5111921;27;20054;-71
2022/04/12 02:21:00;;;;;;;5.00;1.73;;;;;;;;;;5119981;27;20516;-71
2022/04/12 02:23:26;;;;;;;5.30;1.80;;;;;;;;;;5102146;27;20047;-71
2022/04/12 02:25:52;;;;;;;4.38;1.88;;;;;;;;;;5111551;27;20149;-71
2022/04/12 02:28:18;;;;;;;5.15;1.80;;;;;;;;;;5121611;27;20490;-71
2022/04/12 02:30:44;;;;;;;5.85;1.90;;;;;;;;;;5120452;27;20327;-70
2022/04/12 02:33:11;;;;;;;5.35;1.90;;;;;;;;;;5121835;27;20417;-71
2022/04/12 02:35:37;;;;;;;6.35;1.75;;;;;;;;;;5107442;27;20044;-70
2022/04/12 02:38:03;;;;;;;4.78;1.90;;;;;;;;;;5099394;28;20119;-72
2022/04/12 02:40:29;;;;;;;4.85;1.88;;;;;;;;;;5097901;27;20099;-72
2022/04/12 02:42:55;;;;;;;5.20;1.70;;;;;;;;;;5097388;27;20492;-70
2022/04/12 02:45:21;;;;;;;5.68;2.33;;;;;;;;;;5072283;28;20138;-71
2022/04/12 02:47:47;;;;;;;5.13;2.17;;;;;;;;;;5080884;28;20395;-71
2022/04/12 02:50:13;;;;;;;5.30;1.90;;;;;;;;;;5093039;27;20034;-71
2022/04/12 02:52:39;;;;;;;5.18;2.05;;;;;;;;;;5121786;27;20094;-71
2022/04/12 02:55:05;;;;;;;5.10;2.42;;;;;;;;;;5119722;27;20075;-70
2022/04/12 02:57:31;;;;;;;5.10;2.00;;;;;;;;;;5140488;27;20041;-71
2022/04/12 02:59:57;;;;;;;5.75;1.83;;;;;;;;;;5120137;27;20277;-70
2022/04/12 03:02:23;;;;;;;6.40;1.95;;;;;;;;;;5121705;27;20054;-70
2022/04/12 03:04:49;;;;;;;5.03;1.90;;;;;;;;;;5086714;27;20070;-71
2022/04/12 03:07:15;;;;;;;5.22;1.90;;;;;;;;;;5060229;28;20035;-71
2022/04/12 03:09:41;;;;;;;4.63;1.80;;;;;;;;;;5098015;28;20065;-71
2022/04/12 03:12:08;;;;;;;6.03;2.03;;;;;;;;;;5080738;28;20044;-70
2022/04/12 03:14:34;;;;;;;5.50;2.03;;;;;;;;;;5081577;27;20040;-71
2022/04/12 03:17:00;;;;;;;5.93;1.92;;;;;;;;;;5121710;27;20088;-71
2022/04/12 03:19:26;;;;;;;6.28;1.92;;;;;;;;;;5102992;27;20034;-71
2022/04/12 03:21:52;;;;;;;4.70;1.83;;;;;;;;;;5120726;27;20047;-71
2022/04/12 03:24:22;;;;;;;4.95;2.10;;;;;;;;;;5121349;27;20145;-70
2022/04/12 03:26:48;;;;;;;4.53;2.10;;;;;;;;;;5098875;28;20063;-71
2022/04/12 03:29:14;;;;;;;5.65;2.00;;;;;;;;;;5068471;28;20614;-71
2022/04/12 03:31:40;;;;;;;4.90;2.00;;;;;;;;;;5093915;28;20045;-71
2022/04/12 03:34:06;;;;;;;5.43;2.00;;;;;;;;;;5100841;28;20035;-70
2022/04/12 03:36:32;;;;;;;4.90;2.00;;;;;;;;;;5102396;28;20138;-71
2022/04/12 03:38:58;;;;;;;5.20;2.03;;;;;;;;;;5078274;28;20093;-71
2022/04/12 03:41:24;;;;;;;5.85;2.15;;;;;;;;;;5096647;27;20437;-71
2022/04/12 03:43:51;;;;;;;5.57;1.70;;;;;;;;;;5084545;28;20065;-71
2022/04/12 03:46:17;;;;;;;5.22;1.75;;;;;;;;;;5133263;27;20171;-71
2022/04/12 03:48:43;;;;;;;5.70;2.60;;;;;;;;;;5125829;27;20401;-71
2022/04/12 03:51:09;;;;;;;4.25;1.77;;;;;;;;;;5123213;27;20110;-71
2022/04/12 03:53:37;;;;;;;4.32;1.98;;;;;;;;;;5107661;27;20122;-70
2022/04/12 03:56:07;;;;;;;4.70;2.30;;;;;;;;;;5106610;27;20040;-71
2022/04/12 03:58:33;;;;;;;4.75;1.80;;;;;;;;;;5083138;28;20042;-71
2022/04/12 04:00:59;;;;;;;5.38;1.98;;;;;;;;;;5109675;27;20042;-71
2022/04/12 04:03:25;;;;;;;4.00;1.75;;;;;;;;;;5115207;27;20051;-71
2022/04/12 04:05:50;;;;;;;4.60;1.77;;;;;;;;;;5100203;27;20411;-71
2022/04/12 04:08:16;;;;;;;3.92;1.63;;;;;;;;;;5087727;28;20039;-71
2022/04/12 04:10:42;;;;;;;5.03;2.20;;;;;;;;;;5113507;27;20038;-72
2022/04/12 04:13:08;;;;;;;6.30;2.20;;;;;;;;;;5113506;27;20071;-72
2022/04/12 04:15:36;;;;;;;5.70;2.40;;;;;;;;;;5102924;27;20145;-72
2022/04/12 04:18:02;;;;;;;5.55;2.10;;;;;;;;;;5090871;28;20419;-72
2022/04/12 04:20:28;;;;;;;5.72;2.65;;;;;;;;;;5108123;27;20561;-71
2022/04/12 04:22:54;;;;;;;5.15;2.35;;;;;;;;;;5125204;27;20130;-71
2022/04/12 04:25:20;;;;;;;6.15;2.40;;;;;;;;;;5122291;27;20501;-71
2022/04/12 04:27:46;;;;;;;6.28;2.33;;;;;;;;;;5123342;27;20090;-71
2022/04/12 04:30:13;;;;;;;5.97;2.35;;;;;;;;;;5122317;27;20046;-71
2022/04/12 04:32:39;;;;;;;5.70;2.13;;;;;;;;;;5123869;27;20054;-71
2022/04/12 04:35:05;;;;;;;5.35;2.17;;;;;;;;;;5122253;27;20117;-71
2022/04/12 04:37:31;;;;;;;4.75;2.30;;;;;;;;;;5105938;27;20035;-71
2022/04/12 04:39:57;;;;;;;5.70;2.30;;;;;;;;;;5095221;27;20027;-71
2022/04/12 04:42:24;;;;;;;5.35;2.25;;;;;;;;;;5083669;28;20081;-71
2022/04/12 04:44:50;;;;;;;4.93;2.45;;;;;;;;;;5072714;27;20225;-71
2022/04/12 04:47:16;;;;;;;6.03;2.30;;;;;;;;;;5113155;27;20046;-70
2022/04/12 04:49:42;;;;;;;4.10;1.92;;;;;;;;;;5093581;27;20528;-71
2022/04/12 04:52:08;;;;;;;4.55;2.00;;;;;;;;;;5124123;27;20162;-71
2022/04/12 04:54:34;;;;;;;5.45;2.30;;;;;;;;;;5121464;27;20053;-72
2022/04/12 04:57:00;;;;;;;5.22;2.38;;;;;;;;;;5122392;27;20285;-72
2022/04/12 04:59:26;;;;;;;5.72;2.65;;;;;;;;;;5072384;27;20031;-71
2022/04/12 05:01:52;;;;;;;5.47;2.40;;;;;;;;;;5102957;27;20473;-72
2022/04/12 05:04:18;;;;;;;4.88;1.95;;;;;;;;;;5082849;28;20051;-72
2022/04/12 05:06:45;;;;;;;5.82;2.30;;;;;;;;;;5103555;27;20227;-72
2022/04/12 05:09:11;;;;;;;4.22;2.05;;;;;;;;;;5103108;27;20135;-72
2022/04/12 05:11:37;;;;;;;5.25;2.20;;;;;;;;;;5120114;27;20047;-72
2022/04/12 05:14:03;;;;;;;7.18;2.40;;;;;;;;;;5123515;27;20491;-72
2022/04/12 05:16:29;;;;;;;5.40;2.30;;;;;;;;;;5101211;27;20130;-71
2022/04/12 05:18:55;;;;;;;4.75;2.00;;;;;;;;;;5078033;27;20504;-71
2022/04/12 05:21:21;;;;;;;6.00;2.50;;;;;;;;;;5100806;27;20046;-72
2022/04/12 05:23:47;;;;;;;4.28;1.80;;;;;;;;;;5095594;27;20088;-71
2022/04/12 05:26:13;;;;;;;4.80;2.10;;;;;;;;;;5096311;27;20883;-71
2022/04/12 05:28:58;;;;;;;5.57;2.72;;;;;;;;;;5093884;28;20054;-71
2022/04/12 05:31:24;;;;;;;7.20;3.00;;;;;;;;;;5116189;27;20047;-71
2022/04/12 05:33:50;;;;;;;6.93;2.78;;;;;;;;;;5122061;27;20035;-71
2022/04/12 05:36:16;;;;;;;5.45;2.65;;;;;;;;;;5104162;27;20038;-73
2022/04/12 05:38:42;;;;;;;5.13;2.67;;;;;;;;;;5101604;27;20349;-71
2022/04/12 05:41:08;;;;;;;8.27;2.72;;;;;;;;;;5051412;27;20035;-72
2022/04/12 05:43:34;;;;;;;10.13;3.35;;;;;;;;;;5074132;27;20047;-71
2022/04/12 05:46:00;;;;;;;7.30;3.08;;;;;;;;;;5072352;28;20151;-72
2022/04/12 05:48:26;;;;;;;5.82;2.88;;;;;;;;;;5084060;28;20465;-71
2022/04/12 05:50:52;;;;;;;5.57;2.60;;;;;;;;;;5083586;27;20145;-71
2022/04/12 05:53:20;;;;;;;6.90;2.70;;;;;;;;;;5084061;27;20055;-71
2022/04/12 05:55:46;;;;;;;7.93;2.92;;;;;;;;;;5102372;27;20274;-71
2022/04/12 05:58:35;;;;;;;;;;;;;;;;;;5112432;27;20117;-71
2022/04/12 06:01:01;;;;;;;8.10;2.97;;;;;;;;;;5089701;27;19915;-71
2022/04/12 06:03:27;;;;;;;5.88;2.72;;;;;;;;;;5067635;28;20112;-71
2022/04/12 06:05:53;;;;;;;6.03;3.00;;;;;;;;;;5082849;28;20036;-70
2022/04/12 06:08:19;;;;;;;8.05;3.15;;;;;;;;;;5063741;28;20032;-71
2022/04/12 06:10:45;;;;;;;9.32;3.45;;;;;;;;;;5085220;27;20510;-70
2022/04/12 06:13:11;;;;;;;9.27;2.92;;;;;;;;;;5106032;27;20031;-71
2022/04/12 06:15:37;;;;;;;7.53;3.58;;;;;;;;;;5110190;27;20087;-70
2022/04/12 06:18:03;;;;;;;7.70;3.38;;;;;;;;;;5124542;27;20399;-70
2022/04/12 06:20:29;;;;;;;7.65;3.30;;;;;;;;;;5121593;27;20035;-70
2022/04/12 06:22:55;;;;;;;5.88;3.03;;;;;;;;;;5124010;27;20046;-70
2022/04/12 06:25:21;;;;;;;7.80;3.13;;;;;;;;;;5082930;27;20766;-71
2022/04/12 06:27:50;;;;;;;6.82;3.25;;;;;;;;;;5087126;27;20054;-71
2022/04/12 06:30:18;;;;;;;7.07;3.65;;;;;;;;;;5107279;27;20550;-70
2022/04/12 06:32:44;;;;;;;7.43;3.70;;;;;;;;;;5121857;27;20042;-71
2022/04/12 06:35:11;;;;;;;9.02;3.53;;;;;;;;;;5119878;27;20439;-71
2022/04/12 06:37:37;;;;;;;9.02;4.13;;;;;;;;;;5121736;27;20521;-70
2022/04/12 06:40:04;;;;;;;8.68;2.92;;;;;;;;;;5118868;27;20468;-70
2022/04/12 06:42:31;;;;;;;8.07;4.45;;;;;;;;;;5121207;27;20585;-70
2022/04/12 06:44:57;;;;;;;9.02;3.42;;;;;;;;;;5112933;27;20039;-71
2022/04/12 06:47:23;;;;;;;7.28;3.40;;;;;;;;;;5080857;28;20584;-71
2022/04/12 06:49:50;;;;;;;5.85;3.03;;;;;;;;;;5096019;28;20120;-71
2022/04/12 06:52:16;;;;;;;6.78;3.47;;;;;;;;;;5080276;28;20516;-70
2022/04/12 06:54:43;;;;;;;6.28;3.13;;;;;;;;;;5060135;27;20180;-70
2022/04/12 06:57:09;;;;;;;6.88;3.42;;;;;;;;;;5069701;28;20433;-71
2022/04/12 06:59:35;;;;;;;6.63;3.30;;;;;;;;;;5072711;28;20073;-71
2022/04/12 07:02:02;;;;;;;6.13;2.97;;;;;;;;;;5077880;27;20126;-71
2022/04/12 07:04:28;;;;;;;6.03;3.13;;;;;;;;;;5089882;28;20069;-70
2022/04/12 07:06:56;;;;;;;6.10;3.10;;;;;;;;;;5089660;28;20047;-70
2022/04/12 07:09:22;;;;;;;6.57;3.22;;;;;;;;;;5101294;28;20495;-70
2022/04/12 07:11:48;;;;;;;7.35;4.20;;;;;;;;;;5101081;27;20131;-72
2022/04/12 07:14:14;;;;;;;7.97;4.35;;;;;;;;;;5105094;27;20035;-72
2022/04/12 07:16:40;;;;;;;9.55;3.67;;;;;;;;;;5122837;27;20539;-72
2022/04/12 07:19:06;;;;;;;9.82;4.60;;;;;;;;;;5108935;27;20132;-72
2022/04/12 07:21:32;;;;;;;8.63;3.67;;;;;;;;;;5124349;27;20042;-72
2022/04/12 07:24:03;;;;;;;9.68;3.97;;;;;;;;;;5126193;27;20047;-72
2022/04/12 07:26:30;;;;;;;7.85;4.30;;;;;;;;;;5123808;27;20066;-71
2022/04/12 07:28:56;;;;;;;9.60;4.68;;;;;;;;;;5125714;27;20145;-72
2022/04/12 07:31:22;;;;;;;7.32;3.88;;;;;;;;;;5124204;27;20079;-72
2022/04/12 07:33:48;;;;;;;6.63;3.30;;;;;;;;;;5108876;27;20086;-72
2022/04/12 07:36:14;;;;;;;7.07;3.38;;;;;;;;;;5106770;27;20093;-72
2022/04/12 07:38:41;;;;;;;7.10;3.78;;;;;;;;;;5126046;27;20042;-72
2022/04/12 07:41:07;;;;;;;6.60;3.67;;;;;;;;;;5123708;27;20034;-72
2022/04/12 07:43:33;;;;;;;8.00;3.42;;;;;;;;;;5108520;27;20135;-72
2022/04/12 07:45:59;;;;;;;7.45;3.50;;;;;;;;;;5123936;27;20042;-72
2022/04/12 07:48:25;;;;;;;9.30;3.70;;;;;;;;;;5120950;27;20605;-73
2022/04/12 07:50:51;;;;;;;7.72;3.28;;;;;;;;;;5115686;27;20318;-72
2022/04/12 07:53:17;;;;;;;8.23;3.38;;;;;;;;;;5124906;27;20235;-71
2022/04/12 07:55:43;;;;;;;6.13;3.70;;;;;;;;;;5123067;27;20521;-72
2022/04/12 07:58:09;;;;;;;6.78;3.08;;;;;;;;;;5124340;27;20142;-72
2022/04/12 08:00:35;;;;;;;6.97;3.53;;;;;;;;;;5110811;27;20097;-71
2022/04/12 08:03:01;;;;;;;6.45;3.28;;;;;;;;;;5084820;28;20051;-71
2022/04/12 08:05:27;;;;;;;5.68;3.00;;;;;;;;;;5101228;27;20038;-71
2022/04/12 08:07:53;;;;;;;7.38;3.65;;;;;;;;;;5108083;27;20533;-72
2022/04/12 08:10:20;;;;;;;6.03;2.95;;;;;;;;;;5122974;27;20038;-71
2022/04/12 08:12:47;;;;;;;6.75;3.22;;;;;;;;;;5125754;27;20038;-71
2022/04/12 08:15:14;;;;;;;5.80;2.85;;;;;;;;;;5122973;27;20042;-71
2022/04/12 08:17:40;;;;;;;6.78;2.92;;;;;;;;;;5124776;27;20047;-71
2022/04/12 08:20:07;;;;;;;6.35;2.97;;;;;;;;;;5123343;27;20035;-71
2022/04/12 08:22:33;;;;;;;5.85;2.85;;;;;;;;;;5121373;27;20180;-71
2022/04/12 08:24:59;;;;;;;7.03;2.90;;;;;;;;;;5092045;27;20050;-71
2022/04/12 08:27:26;;;;;;;5.88;3.00;;;;;;;;;;5124594;27;20057;-70
2022/04/12 08:29:52;;;;;;;6.75;3.10;;;;;;;;;;5122252;27;20517;-72
2022/04/12 08:32:18;;;;;;;6.72;2.80;;;;;;;;;;5124526;27;20220;-71
2022/04/12 08:34:44;;;;;;;6.65;2.67;;;;;;;;;;5118280;27;20054;-71
2022/04/12 08:37:10;;;;;;;5.30;2.47;;;;;;;;;;5083648;28;20481;-71
2022/04/12 08:39:36;;;;;;;5.80;2.70;;;;;;;;;;5069204;27;20241;-71
2022/04/12 08:42:03;;;;;;;5.75;2.63;;;;;;;;;;5125044;27;20043;-71
2022/04/12 08:44:30;;;;;;;6.07;2.67;;;;;;;;;;5104903;27;20338;-71
2022/04/12 08:46:56;;;;;;;6.22;2.67;;;;;;;;;;5103371;27;20042;-72
2022/04/12 08:49:23;;;;;;;8.10;3.00;;;;;;;;;;5103106;27;20302;-72
2022/04/12 08:51:49;;;;;;;5.50;2.50;;;;;;;;;;5123564;27;20184;-72
2022/04/12 08:54:19;;;;;;;6.43;2.60;;;;;;;;;;5124030;27;20070;-71
2022/04/12 08:56:48;;;;;;;5.82;2.83;;;;;;;;;;5099596;27;20040;-71
2022/04/12 08:59:14;;;;;;;5.60;2.72;;;;;;;;;;5065824;28;20032;-71
2022/04/12 09:01:41;;;;;;;5.18;2.55;;;;;;;;;;5120535;27;20114;-71
2022/04/12 09:04:07;;;;;;;6.63;3.03;;;;;;;;;;5124030;27;20115;-72
2022/04/12 09:06:33;;;;;;;5.13;2.50;;;;;;;;;;5121384;27;20053;-72
2022/04/12 09:09:12;;;;;;;5.55;2.50;;;;;;;;;;5123687;27;20046;-71
2022/04/12 09:11:54;;;;;;;5.72;2.72;;;;;;;;;;5105079;27;20056;-72
2022/04/12 09:14:20;;;;;;;7.85;3.50;;;;;;;;;;5106377;27;20073;-71
2022/04/12 09:16:47;;;;;;;7.85;3.42;;;;;;;;;;5122103;27;20066;-71
2022/04/12 09:19:13;;;;;;;6.10;2.85;;;;;;;;;;5123632;27;20070;-72
2022/04/12 09:21:45;;;;;;;5.80;2.53;;;;;;;;;;5121647;27;20046;-72
2022/04/12 09:24:18;;;;;;;6.18;2.78;;;;;;;;;;5123304;27;20068;-71
2022/04/12 09:26:54;;;;;;;7.47;3.13;;;;;;;;;;5121031;27;20088;-71
2022/04/12 09:29:25;;;;;;;6.20;2.83;;;;;;;;;;5142125;27;20456;-71
2022/04/12 09:31:55;;;;;;;6.05;2.60;;;;;;;;;;5122699;27;20050;-71
2022/04/12 09:34:21;;;;;;;5.75;2.85;;;;;;;;;;5123226;27;20122;-72
2022/04/12 09:36:47;;;;;;;6.65;3.20;;;;;;;;;;5103941;27;20687;-71
2022/04/12 09:39:16;;;;;;;5.60;2.83;;;;;;;;;;5123103;27;20063;-72
2022/04/12 09:41:42;;;;;;;6.53;2.95;;;;;;;;;;5121103;27;20042;-72
2022/04/12 09:44:08;;;;;;;6.53;3.08;;;;;;;;;;5122552;27;20043;-72
2022/04/12 09:46:38;;;;;;;5.80;2.97;;;;;;;;;;5121370;27;20511;-71
2022/04/12 09:49:05;;;;;;;6.00;2.70;;;;;;;;;;5105529;27;20094;-72
2022/04/12 09:51:32;;;;;;;5.85;2.88;;;;;;;;;;5103717;27;20043;-72
2022/04/12 09:53:58;;;;;;;6.03;2.92;;;;;;;;;;5122509;27;20505;-72
2022/04/12 09:56:25;;;;;;;5.07;2.50;;;;;;;;;;5121042;27;20106;-72
2022/04/12 09:58:55;;;;;;;6.30;3.08;;;;;;;;;;5122800;27;20443;-72
2022/04/12 10:01:22;;;;;;;5.93;3.08;;;;;;;;;;5120367;27;20050;-72
2022/04/12 10:03:51;;;;;;;5.80;3.10;;;;;;;;;;5122284;27;20045;-72
2022/04/12 10:06:24;;;;;;;6.53;2.70;;;;;;;;;;5120594;27;20041;-72
2022/04/12 10:08:59;;;;;;;7.18;3.22;;;;;;;;;;5121945;27;20213;-72
2022/04/12 10:11:26;;;;;;;5.50;2.67;;;;;;;;;;5121132;27;20042;-72
2022/04/12 10:13:52;;;;;;;6.07;3.13;;;;;;;;;;5121126;27;20038;-71
2022/04/12 10:16:20;;;;;;;6.75;3.42;;;;;;;;;;5103531;27;20103;-72
2022/04/12 10:18:46;;;;;;;5.82;3.03;;;;;;;;;;5122360;27;20061;-72
2022/04/12 10:21:13;;;;;;;6.63;3.60;;;;;;;;;;5103444;27;20041;-72
2022/04/12 10:23:43;;;;;;;5.93;3.05;;;;;;;;;;5105182;27;20099;-71
2022/04/12 10:26:10;;;;;;;5.80;3.10;;;;;;;;;;5112770;27;20210;-72
2022/04/12 10:28:37;;;;;;;7.60;3.33;;;;;;;;;;5101067;27;20132;-71
2022/04/12 10:31:15;;;;;;;6.63;3.08;;;;;;;;;;5100660;27;20392;-72
2022/04/12 10:33:41;;;;;;;6.82;3.58;;;;;;;;;;5084258;27;20039;-72
2022/04/12 10:36:07;;;;;;;7.22;3.28;;;;;;;;;;5114594;27;20091;-72
2022/04/12 10:38:38;;;;;;;6.25;3.08;;;;;;;;;;5121791;27;20039;-72
2022/04/12 10:41:12;;;;;;;6.28;3.05;;;;;;;;;;5106866;27;20050;-73
2022/04/12 10:43:38;;;;;;;7.03;3.30;;;;;;;;;;5101335;27;20043;-72
2022/04/12 10:46:09;;;;;;;6.55;3.47;;;;;;;;;;5113802;27;20042;-72
2022/04/12 10:48:35;;;;;;;6.47;3.30;;;;;;;;;;5121536;27;20038;-72
2022/04/12 10:51:02;;;;;;;6.53;2.92;;;;;;;;;;5119861;27;20066;-72
2022/04/12 10:53:40;;;;;;;5.45;2.63;;;;;;;;;;5121643;27;20038;-72
2022/04/12 10:56:10;;;;;;;6.22;2.97;;;;;;;;;;5119674;27;20042;-72
2022/04/12 10:58:36;;;;;;;6.30;3.35;;;;;;;;;;5120658;27;20038;-72
2022/04/12 11:01:03;;;;;;;6.47;3.13;;;;;;;;;;5120272;27;20061;-72
2022/04/12 11:03:41;;;;;;;6.78;3.53;;;;;;;;;;5121803;27;20042;-72
2022/04/12 11:06:11;;;;;;;6.50;3.10;;;;;;;;;;5105853;27;20513;-71
2022/04/12 11:08:40;;;;;;;6.90;3.35;;;;;;;;;;5100495;28;20038;-72
2022/04/12 11:11:06;;;;;;;6.40;3.20;;;;;;;;;;5113723;27;20050;-71
2022/04/12 11:13:33;;;;;;;6.22;3.25;;;;;;;;;;5120859;27;20070;-72
2022/04/12 11:16:03;;;;;;;6.70;3.80;;;;;;;;;;5119874;27;20057;-71
2022/04/12 11:18:48;;;;;;;7.50;3.25;;;;;;;;;;5121678;27;20520;-72
2022/04/12 11:21:15;;;;;;;6.22;3.22;;;;;;;;;;5119306;27;20038;-72
2022/04/12 11:23:51;;;;;;;6.45;3.33;;;;;;;;;;5121528;27;20046;-72
2022/04/12 11:26:36;;;;;;;6.57;3.03;;;;;;;;;;5118670;27;20046;-72
2022/04/12 11:29:06;;;;;;;6.05;3.08;;;;;;;;;;5121165;27;20047;-72
2022/04/12 11:31:36;;;;;;;6.68;3.40;;;;;;;;;;5119580;27;20052;-72
2022/04/12 11:34:02;;;;;;;6.18;3.25;;;;;;;;;;5103233;27;20107;-71
2022/04/12 11:36:29;;;;;;;5.60;2.92;;;;;;;;;;5119722;27;20429;-72
2022/04/12 11:38:57;;;;;;;6.25;3.55;;;;;;;;;;5121089;27;20038;-72
2022/04/12 11:41:23;;;;;;;6.65;3.47;;;;;;;;;;5118991;27;20468;-72
2022/04/12 11:43:57;;;;;;;6.95;3.47;;;;;;;;;;5121273;27;20094;-72
2022/04/12 11:46:23;;;;;;;5.93;3.33;;;;;;;;;;5119079;27;20487;-71
2022/04/12 11:48:49;;;;;;;7.20;3.65;;;;;;;;;;5121100;27;20039;-72
2022/04/12 11:51:17;;;;;;;6.57;3.40;;;;;;;;;;5102645;27;20046;-72
2022/04/12 11:53:48;;;;;;;8.07;3.35;;;;;;;;;;5121224;27;20125;-72
2022/04/12 11:56:14;;;;;;;6.03;3.30;;;;;;;;;;5119775;27;20266;-72
2022/04/12 11:58:40;;;;;;;6.70;3.47;;;;;;;;;;5121634;27;20081;-72
2022/04/12 12:01:07;;;;;;;6.80;3.83;;;;;;;;;;5122725;27;20062;-72
2022/04/12 12:03:36;;;;;;;7.10;3.58;;;;;;;;;;5125017;27;20065;-72
2022/04/12 12:06:02;;;;;;;7.65;3.53;;;;;;;;;;5106362;27;20437;-72
2022/04/12 12:08:28;;;;;;;6.57;3.50;;;;;;;;;;5066982;28;20043;-73
2022/04/12 12:10:56;;;;;;;7.18;3.38;;;;;;;;;;5083575;28;20077;-73
2022/04/12 12:13:26;;;;;;;6.97;3.63;;;;;;;;;;5083542;28;20055;-72
2022/04/12 12:15:52;;;;;;;8.38;3.58;;;;;;;;;;5106732;27;20039;-73
2022/04/12 12:18:19;;;;;;;7.32;3.50;;;;;;;;;;5124498;27;20180;-72
2022/04/12 12:20:47;;;;;;;6.78;3.28;;;;;;;;;;5105796;27;20428;-72
2022/04/12 12:23:13;;;;;;;6.53;3.30;;;;;;;;;;5124511;27;20070;-71
2022/04/12 12:25:39;;;;;;;7.90;3.30;;;;;;;;;;5122426;27;20444;-73
2022/04/12 12:28:09;;;;;;;6.75;3.58;;;;;;;;;;5124469;27;20138;-72
2022/04/12 12:30:36;;;;;;;8.68;3.42;;;;;;;;;;5122548;27;20506;-71
2022/04/12 12:33:02;;;;;;;7.50;4.03;;;;;;;;;;5124601;27;20126;-72
2022/04/12 12:35:28;;;;;;;8.70;3.88;;;;;;;;;;5105622;27;20551;-72
2022/04/12 12:38:13;;;;;;;6.70;3.28;;;;;;;;;;5124183;27;20126;-72
2022/04/12 12:40:40;;;;;;;7.13;3.47;;;;;;;;;;5105765;27;20046;-72
2022/04/12 12:43:07;;;;;;;7.90;3.55;;;;;;;;;;5103254;27;20042;-72
2022/04/12 12:45:34;;;;;;;6.93;3.58;;;;;;;;;;5099180;28;20071;-71
2022/04/12 12:48:00;;;;;;;7.63;4.00;;;;;;;;;;5083407;28;20044;-71
2022/04/12 12:50:27;;;;;;;8.95;4.30;;;;;;;;;;5101976;27;20046;-72
2022/04/12 12:53:00;;;;;;;7.88;4.00;;;;;;;;;;5103373;27;20623;-72
2022/04/12 12:55:28;;;;;;;6.15;3.60;;;;;;;;;;5106717;27;20131;-72
2022/04/12 12:57:57;;;;;;;6.72;3.10;;;;;;;;;;5103858;27;20039;-73
2022/04/12 13:00:26;;;;;;;7.07;3.30;;;;;;;;;;5101428;27;20047;-71
2022/04/12 13:02:59;;;;;;;7.20;3.63;;;;;;;;;;5087783;27;20035;-72
2022/04/12 13:05:25;;;;;;;8.75;3.53;;;;;;;;;;5074906;27;20134;-71
2022/04/12 13:07:55;;;;;;;9.25;4.50;;;;;;;;;;5050287;27;20075;-72
2022/04/12 13:10:21;;;;;;;8.20;4.15;;;;;;;;;;5071447;27;20046;-71
2022/04/12 13:12:47;;;;;;;9.55;4.63;;;;;;;;;;5094127;27;20174;-71
2022/04/12 13:15:13;;;;;;;8.27;4.45;;;;;;;;;;5104395;27;20210;-71
2022/04/12 13:17:40;;;;;;;7.65;4.13;;;;;;;;;;5082635;27;20031;-71
2022/04/12 13:20:07;;;;;;;9.32;3.95;;;;;;;;;;5098039;27;20353;-71
2022/04/12 13:22:33;;;;;;;9.30;4.88;;;;;;;;;;5098118;27;20100;-72
2022/04/12 13:25:00;;;;;;;9.27;4.18;;;;;;;;;;5078107;27;20047;-71
2022/04/12 13:27:26;;;;;;;8.27;4.25;;;;;;;;;;5077992;27;20149;-72
2022/04/12 13:29:52;;;;;;;8.10;4.78;;;;;;;;;;5092770;27;20055;-71
2022/04/12 13:32:19;;;;;;;10.82;4.95;;;;;;;;;;5081754;27;20066;-72
2022/04/12 13:34:46;;;;;;;9.85;4.80;;;;;;;;;;5096356;27;20065;-72
2022/04/12 13:37:13;;;;;;;10.95;5.13;;;;;;;;;;5122987;27;20043;-71
2022/04/12 13:39:39;;;;;;;9.57;4.18;;;;;;;;;;5117468;27;20052;-73
2022/04/12 13:42:05;;;;;;;10.30;5.03;;;;;;;;;;5081396;28;20039;-71
2022/04/12 13:44:35;;;;;;;9.05;4.95;;;;;;;;;;5089691;27;20107;-71
2022/04/12 13:47:02;;;;;;;8.88;4.55;;;;;;;;;;5100241;27;20190;-71
2022/04/12 13:49:29;;;;;;;10.05;5.00;;;;;;;;;;5100916;27;20043;-71
2022/04/12 13:51:55;;;;;;;11.32;4.43;;;;;;;;;;5082275;28;20070;-71
2022/04/12 13:54:21;;;;;;;8.52;4.32;;;;;;;;;;5094225;27;20188;-70
2022/04/12 13:56:47;;;;;;;12.02;4.60;;;;;;;;;;5099690;27;20047;-71
2022/04/12 13:59:13;;;;;;;9.77;4.65;;;;;;;;;;5095258;27;20460;-71
2022/04/12 14:01:39;;;;;;;10.30;4.88;;;;;;;;;;5101909;27;20055;-71
2022/04/12 14:04:06;;;;;;;11.60;4.72;;;;;;;;;;5102124;27;20430;-71
2022/04/12 14:06:32;;;;;;;9.20;5.13;;;;;;;;;;5113989;27;20459;-71
2022/04/12 14:08:58;;;;;;;12.98;6.15;;;;;;;;;;5097605;27;20055;-72
2022/04/12 14:11:24;;;;;;;10.60;5.55;;;;;;;;;;5090338;27;20081;-71
2022/04/12 14:13:50;;;;;;;10.75;5.68;;;;;;;;;;5075431;27;20436;-71
2022/04/12 14:16:16;;;;;;;11.00;5.80;;;;;;;;;;5098133;27;20043;-71
2022/04/12 14:18:42;;;;;;;12.98;5.78;;;;;;;;;;5089727;27;20039;-71
2022/04/12 14:21:10;;;;;;;10.70;5.10;;;;;;;;;;5090621;27;20046;-71
2022/04/12 14:23:36;;;;;;;11.27;6.03;;;;;;;;;;5091311;27;20051;-71
2022/04/12 14:26:04;;;;;;;12.20;5.53;;;;;;;;;;5069969;28;20609;-71
2022/04/12 14:28:31;;;;;;;11.45;5.47;;;;;;;;;;5082937;27;20127;-72
2022/04/12 14:30:57;;;;;;;10.82;5.00;;;;;;;;;;5099978;27;20124;-71
2022/04/12 14:33:23;;;;;;;9.25;5.20;;;;;;;;;;5084095;27;20422;-71
2022/04/12 14:35:49;;;;;;;9.70;5.07;;;;;;;;;;5111526;27;20297;-72
2022/04/12 14:38:15;;;;;;;10.95;5.40;;;;;;;;;;5122058;27;20118;-71
2022/04/12 14:40:43;;;;;;;12.23;5.63;;;;;;;;;;5108874;27;20083;-71
2022/04/12 14:43:09;;;;;;;13.18;6.50;;;;;;;;;;5100545;27;20571;-71
2022/04/12 14:45:35;;;;;;;12.65;6.07;;;;;;;;;;5100360;27;20126;-72